Time;durP1;ratioP1;P1;durP2;ratioP2;P2;SDS_P1;SDS_P2;PMS_P1;PMS_P2;Temp;Humidity;BMP_temperature;BMP_pressure;BME280_temperature;BME280_humidity;BME280_pressure;Samples;Min_cycle;Max_cycle;Signal;HPM_P1;HPM_P2
2024/01/15 00:00:09;;;;;;;31.47;20.70;;;;;;;-0.34;100.00;99473.84;5020348;28;20206;-76
2024/01/15 00:02:35;;;;;;;34.73;21.47;;;;;;;-0.35;100.00;99466.19;5023193;28;20557;-77
2024/01/15 00:05:00;;;;;;;28.63;19.33;;;;;;;-0.41;100.00;99471.13;5016236;28;20205;-76
2024/01/15 00:07:25;;;;;;;32.40;20.57;;;;;;;-0.41;100.00;99473.66;5025052;28;20196;-76
2024/01/15 00:09:50;;;;;;;32.87;20.47;;;;;;;-0.40;100.00;99467.75;5020614;28;20708;-76
2024/01/15 00:12:16;;;;;;;35.37;20.70;;;;;;;-0.41;100.00;99466.03;5026090;28;20189;-75
2024/01/15 00:14:42;;;;;;;33.13;20.30;;;;;;;-0.37;100.00;99465.28;5022547;28;20281;-76
2024/01/15 00:17:07;;;;;;;33.23;21.23;;;;;;;-0.34;100.00;99460.28;5022348;28;20683;-75
2024/01/15 00:19:32;;;;;;;31.10;19.97;;;;;;;-0.30;100.00;99459.50;5024086;28;20177;-76
2024/01/15 00:21:59;;;;;;;29.47;20.43;;;;;;;-0.28;100.00;99462.09;5025453;28;20298;-76
2024/01/15 00:24:24;;;;;;;31.60;20.03;;;;;;;-0.28;100.00;99457.84;5025667;28;20199;-76
2024/01/15 00:26:49;;;;;;;34.30;21.67;;;;;;;-0.29;100.00;99460.38;5021873;28;20179;-76
2024/01/15 00:29:15;;;;;;;31.07;20.57;;;;;;;-0.32;100.00;99451.00;5023617;28;20222;-76
2024/01/15 00:31:40;;;;;;;33.53;21.90;;;;;;;-0.28;100.00;99459.56;5017624;28;20302;-77
2024/01/15 00:34:05;;;;;;;32.50;20.90;;;;;;;-0.28;100.00;99451.94;5022194;28;20194;-76
2024/01/15 00:36:31;;;;;;;34.27;21.37;;;;;;;-0.23;100.00;99452.88;5034723;28;20848;-76
2024/01/15 00:38:56;;;;;;;33.70;21.63;;;;;;;-0.26;100.00;99451.13;5023878;28;20185;-76
2024/01/15 00:41:22;;;;;;;35.30;22.77;;;;;;;-0.24;100.00;99453.72;5031559;28;21007;-76
2024/01/15 00:43:49;;;;;;;36.00;23.93;;;;;;;-0.28;100.00;99457.84;5025033;28;20213;-76
2024/01/15 00:46:14;;;;;;;36.43;23.30;;;;;;;-0.28;100.00;99460.41;5023090;28;20188;-76
2024/01/15 00:48:39;;;;;;;37.80;23.53;;;;;;;-0.29;100.00;99451.03;5019035;28;20182;-75
2024/01/15 00:51:05;;;;;;;36.97;23.57;;;;;;;-0.31;100.00;99462.91;5022619;28;20211;-75
2024/01/15 00:53:30;;;;;;;32.37;21.67;;;;;;;-0.32;100.00;99449.31;5022012;28;20255;-77
2024/01/15 00:55:56;;;;;;;39.13;24.13;;;;;;;-0.23;100.00;99455.44;5022977;28;20280;-75
2024/01/15 00:58:21;;;;;;;39.73;23.87;;;;;;;-0.36;100.00;99459.38;5022226;28;20199;-75
2024/01/15 01:00:47;;;;;;;41.50;25.53;;;;;;;-0.29;100.00;99445.13;5021112;28;20214;-78
2024/01/15 01:03:12;;;;;;;38.50;24.60;;;;;;;-0.38;100.00;99441.53;5020545;28;20187;-76
2024/01/15 01:05:37;;;;;;;38.87;24.10;;;;;;;-0.33;100.00;99434.88;5021567;28;21120;-77
2024/01/15 01:08:03;;;;;;;37.33;24.53;;;;;;;-0.37;100.00;99430.53;5024001;28;20183;-77
2024/01/15 01:10:28;;;;;;;38.33;24.07;;;;;;;-0.41;100.00;99430.44;5023271;28;20212;-77
2024/01/15 01:12:53;;;;;;;38.00;24.33;;;;;;;-0.45;100.00;99434.63;5019758;28;20593;-77
2024/01/15 01:15:19;;;;;;;41.30;24.83;;;;;;;-0.43;100.00;99427.88;5023408;28;20648;-76
2024/01/15 01:17:45;;;;;;;37.97;25.17;;;;;;;-0.46;100.00;99427.81;5022678;28;20173;-78
2024/01/15 01:20:10;;;;;;;35.97;23.77;;;;;;;-0.58;100.00;99425.00;5017087;28;20200;-75
2024/01/15 01:22:36;;;;;;;38.30;24.53;;;;;;;-0.59;100.00;99424.13;5023128;28;20596;-76
2024/01/15 01:25:02;;;;;;;38.10;24.43;;;;;;;-0.53;100.00;99424.28;5021535;28;20216;-75
2024/01/15 01:27:27;;;;;;;40.43;24.50;;;;;;;-0.52;100.00;99422.59;5023341;28;20189;-76
2024/01/15 01:29:53;;;;;;;42.10;25.37;;;;;;;-0.60;100.00;99426.66;5021054;28;20216;-76
2024/01/15 01:32:18;;;;;;;42.40;25.83;;;;;;;-0.66;100.00;99418.06;5021053;28;20272;-77
2024/01/15 01:34:44;;;;;;;38.43;23.83;;;;;;;-0.67;100.00;99429.03;5022910;28;20208;-77
2024/01/15 01:37:15;;;;;;;39.50;25.77;;;;;;;-0.61;100.00;99418.19;5023947;28;20272;-75
2024/01/15 01:39:42;;;;;;;39.23;24.63;;;;;;;-0.65;100.00;99419.78;5023896;28;20186;-76
2024/01/15 01:42:07;;;;;;;39.03;24.53;;;;;;;-0.65;100.00;99414.69;5022387;28;20611;-76
2024/01/15 01:44:32;;;;;;;36.23;23.43;;;;;;;-0.52;100.00;99414.97;5016849;28;20192;-77
2024/01/15 01:46:59;;;;;;;37.17;24.43;;;;;;;-0.63;100.00;99420.66;5020496;28;20186;-76
2024/01/15 01:49:26;;;;;;;38.37;24.67;;;;;;;-0.66;100.00;99419.75;5022981;28;20196;-77
2024/01/15 01:51:52;;;;;;;38.87;23.57;;;;;;;-0.63;100.00;99423.22;5023574;28;20209;-75
2024/01/15 01:54:19;;;;;;;38.57;24.93;;;;;;;-0.66;100.00;99412.97;5025269;28;20448;-75
2024/01/15 01:56:46;;;;;;;38.53;24.03;;;;;;;-0.68;100.00;99427.31;5022339;28;20201;-76
2024/01/15 01:59:11;;;;;;;35.77;23.57;;;;;;;-0.68;100.00;99417.16;5019895;28;20193;-77
2024/01/15 02:01:38;;;;;;;36.90;23.67;;;;;;;-0.66;100.00;99420.59;5025363;28;20216;-75
2024/01/15 02:04:04;;;;;;;40.23;25.23;;;;;;;-0.62;100.00;99414.78;5023619;28;20255;-77
2024/01/15 02:06:29;;;;;;;37.77;24.10;;;;;;;-0.64;100.00;99411.34;5024757;28;20293;-76
2024/01/15 02:08:55;;;;;;;39.87;23.97;;;;;;;-0.58;100.00;99413.16;5027239;28;20283;-77
2024/01/15 02:11:21;;;;;;;40.17;25.77;;;;;;;-0.63;100.00;99409.66;5022151;28;20609;-77
2024/01/15 02:13:47;;;;;;;36.70;24.47;;;;;;;-0.56;100.00;99408.97;5028044;28;20186;-78
2024/01/15 02:16:12;;;;;;;38.93;24.07;;;;;;;-0.62;100.00;99409.69;5027331;28;21063;-75
2024/01/15 02:18:45;;;;;;;37.90;23.90;;;;;;;-0.60;100.00;99402.09;5028285;28;20188;-76
2024/01/15 02:21:11;;;;;;;42.03;25.57;;;;;;;-0.63;100.00;99409.66;5026785;28;20300;-76
2024/01/15 02:23:37;;;;;;;39.23;25.57;;;;;;;-0.50;100.00;99403.16;5025994;28;20272;-76
2024/01/15 02:26:04;;;;;;;38.13;23.80;;;;;;;-0.49;100.00;99403.19;5025425;28;20324;-76
2024/01/15 02:28:30;;;;;;;38.33;24.53;;;;;;;-0.62;100.00;99402.06;5026788;28;20183;-76
2024/01/15 02:30:55;;;;;;;36.77;24.13;;;;;;;-0.69;100.00;99405.31;5026844;28;20708;-76
2024/01/15 02:33:21;;;;;;;40.30;25.13;;;;;;;-0.67;100.00;99401.09;5027659;28;20199;-76
2024/01/15 02:35:46;;;;;;;38.30;25.30;;;;;;;-0.64;100.00;99403.72;5024351;28;20273;-76
2024/01/15 02:38:12;;;;;;;37.83;24.63;;;;;;;-0.54;100.00;99396.31;5023879;28;20280;-76
2024/01/15 02:40:38;;;;;;;38.23;24.27;;;;;;;-0.56;100.00;99403.03;5031673;28;20201;-75
2024/01/15 02:43:03;;;;;;;38.53;24.17;;;;;;;-0.59;100.00;99396.19;5027751;28;20706;-77
2024/01/15 02:45:29;;;;;;;36.93;23.23;;;;;;;-0.56;100.00;99395.41;5022575;28;20186;-76
2024/01/15 02:47:54;;;;;;;38.67;24.17;;;;;;;-0.52;100.00;99395.50;5022452;28;20677;-76
2024/01/15 02:50:19;;;;;;;38.37;23.90;;;;;;;-0.52;100.00;99395.50;5021567;28;20197;-75
2024/01/15 02:52:45;;;;;;;38.37;24.23;;;;;;;-0.54;100.00;99403.94;5026155;28;20253;-75
2024/01/15 02:55:10;;;;;;;38.87;25.43;;;;;;;-0.51;100.00;99389.59;5024013;28;20265;-77
2024/01/15 02:57:35;;;;;;;38.30;24.43;;;;;;;-0.56;100.00;99400.50;5023089;28;20192;-76
2024/01/15 03:00:01;;;;;;;37.27;23.57;;;;;;;-0.63;100.00;99399.50;5021185;28;20217;-76
2024/01/15 03:02:26;;;;;;;36.97;23.83;;;;;;;-0.62;100.00;99384.28;5023685;28;20204;-76
2024/01/15 03:04:52;;;;;;;35.73;22.97;;;;;;;-0.55;100.00;99394.59;5026242;28;20181;-76
2024/01/15 03:07:17;;;;;;;36.77;23.17;;;;;;;-0.59;100.00;99380.94;5026977;28;20665;-75
2024/01/15 03:09:43;;;;;;;36.07;23.50;;;;;;;-0.56;100.00;99383.53;5025049;28;20214;-76
2024/01/15 03:12:08;;;;;;;38.90;23.87;;;;;;;-0.52;100.00;99392.09;5022092;28;20197;-77
2024/01/15 03:14:33;;;;;;;39.77;23.43;;;;;;;-0.49;100.00;99387.06;5024930;28;20766;-76
2024/01/15 03:17:00;;;;;;;35.93;22.30;;;;;;;-0.43;100.00;99386.34;5024041;28;20182;-77
2024/01/15 03:19:25;;;;;;;31.90;21.87;;;;;;;-0.43;100.00;99382.13;5024558;28;20194;-77
2024/01/15 03:21:51;;;;;;;37.73;23.80;;;;;;;-0.37;100.00;99383.94;5019473;28;20910;-77
2024/01/15 03:24:16;;;;;;;37.33;23.70;;;;;;;-0.41;100.00;99377.94;5028638;28;20190;-76
2024/01/15 03:26:41;;;;;;;36.37;23.30;;;;;;;-0.39;100.00;99371.22;5024244;28;20268;-74
2024/01/15 03:29:07;;;;;;;39.23;22.30;;;;;;;-0.35;100.00;99372.13;5020216;28;20570;-75
2024/01/15 03:31:32;;;;;;;34.27;22.63;;;;;;;-0.33;100.00;99367.94;5025456;28;20216;-76
2024/01/15 03:33:57;;;;;;;29.67;20.07;;;;;;;-0.41;100.00;99375.41;5019274;28;20274;-77
2024/01/15 03:36:23;;;;;;;34.43;21.57;;;;;;;-0.40;100.00;99372.03;5024909;28;20246;-76
2024/01/15 03:38:48;;;;;;;32.67;21.10;;;;;;;-0.39;100.00;99371.22;5018039;28;20187;-77
2024/01/15 03:41:13;;;;;;;34.63;21.20;;;;;;;-0.38;100.00;99367.81;5037638;28;20275;-76
2024/01/15 03:43:39;;;;;;;30.53;21.03;;;;;;;-0.34;100.00;99369.59;5023300;28;20633;-76
2024/01/15 03:46:05;;;;;;;33.13;21.27;;;;;;;-0.29;100.00;99364.59;5025859;28;20558;-76
2024/01/15 03:48:30;;;;;;;31.07;21.10;;;;;;;-0.20;100.00;99359.72;5026696;28;20256;-75
2024/01/15 03:50:55;;;;;;;34.73;22.47;;;;;;;-0.16;100.00;99355.53;5024380;28;20733;-77
2024/01/15 03:53:21;;;;;;;32.33;20.10;;;;;;;-0.13;100.00;99349.63;5026217;28;20287;-77
2024/01/15 03:55:46;;;;;;;31.80;21.77;;;;;;;-0.18;100.00;99350.44;5036058;28;20243;-76
2024/01/15 03:58:11;;;;;;;35.63;21.53;;;;;;;-0.14;100.00;99338.63;5024079;28;20191;-76
2024/01/15 04:00:37;;;;;;;36.97;22.10;;;;;;;-0.11;100.00;99341.22;5023936;28;20206;-76
2024/01/15 04:03:02;;;;;;;36.07;23.33;;;;;;;-0.08;100.00;99340.41;5024488;28;20291;-77
2024/01/15 04:05:27;;;;;;;33.53;20.77;;;;;;;-0.05;100.00;99346.41;5021287;28;20773;-76
2024/01/15 04:07:53;;;;;;;34.17;21.83;;;;;;;0.01;100.00;99332.09;5024041;28;20297;-76
2024/01/15 04:10:18;;;;;;;35.20;22.53;;;;;;;0.02;100.00;99323.66;5022244;28;20685;-77
2024/01/15 04:12:46;;;;;;;34.83;23.10;;;;;;;0.06;100.00;99333.06;5022553;28;20191;-76
2024/01/15 04:15:11;;;;;;;31.57;21.03;;;;;;;0.06;100.00;99333.06;5023643;28;20548;-76
2024/01/15 04:17:37;;;;;;;30.93;21.47;;;;;;;0.08;100.00;99337.34;5024325;28;20178;-76
2024/01/15 04:20:02;;;;;;;36.50;23.70;;;;;;;0.13;100.00;99332.31;5023695;28;20203;-75
2024/01/15 04:22:28;;;;;;;29.80;19.83;;;;;;;0.12;100.00;99322.97;5024786;28;20218;-75
2024/01/15 04:24:53;;;;;;;34.63;21.53;;;;;;;0.13;100.00;99324.69;5021842;28;20239;-76
2024/01/15 04:27:18;;;;;;;39.17;24.00;;;;;;;0.21;100.00;99323.16;5019724;28;20179;-75
2024/01/15 04:29:44;;;;;;;34.17;22.57;;;;;;;0.30;100.00;99320.75;5022969;28;20192;-76
2024/01/15 04:32:10;;;;;;;35.50;23.10;;;;;;;0.17;100.00;99315.41;5022383;28;20176;-76
2024/01/15 04:34:35;;;;;;;29.63;21.53;;;;;;;0.08;100.00;99316.97;5024892;28;20199;-76
2024/01/15 04:37:01;;;;;;;31.73;21.47;;;;;;;0.08;100.00;99318.66;5025334;28;20572;-75
2024/01/15 04:39:26;;;;;;;31.97;21.37;;;;;;;0.05;100.00;99311.84;5024076;28;20541;-76
2024/01/15 04:41:51;;;;;;;34.00;22.70;;;;;;;0.05;100.00;99314.38;5025048;28;20696;-77
2024/01/15 04:44:16;;;;;;;28.13;19.67;;;;;;;0.07;100.00;99316.97;5024141;28;20198;-75
2024/01/15 04:46:43;;;;;;;30.50;20.40;;;;;;;0.08;100.00;99318.66;5022416;28;20290;-76
2024/01/15 04:49:09;;;;;;;30.27;19.97;;;;;;;0.10;100.00;99327.19;5016872;28;20190;-76
2024/01/15 04:51:34;;;;;;;30.27;20.67;;;;;;;0.11;100.00;99324.69;5014137;28;20658;-75
2024/01/15 04:54:00;;;;;;;27.00;19.13;;;;;;;0.14;100.00;99321.31;5024626;28;20608;-76
2024/01/15 04:56:25;;;;;;;31.23;21.10;;;;;;;0.13;100.00;99314.50;5019931;28;20202;-76
2024/01/15 04:58:50;;;;;;;28.53;19.87;;;;;;;0.14;100.00;99300.97;5020670;28;20193;-77
2024/01/15 05:01:16;;;;;;;31.10;21.73;;;;;;;0.13;100.00;99300.13;5016043;28;20215;-75
2024/01/15 05:03:42;;;;;;;31.17;20.83;;;;;;;0.10;100.00;99286.47;5023263;28;20182;-76
2024/01/15 05:06:07;;;;;;;33.57;22.53;;;;;;;0.15;100.00;99279.78;5014693;28;20201;-76
2024/01/15 05:08:32;;;;;;;32.10;21.40;;;;;;;0.04;100.00;99274.50;5021991;28;20187;-75
2024/01/15 05:10:58;;;;;;;31.07;21.20;;;;;;;-0.07;100.00;99281.94;5019757;28;20205;-75
2024/01/15 05:13:23;;;;;;;31.17;21.47;;;;;;;-0.07;100.00;99276.00;5019137;28;20729;-77
2024/01/15 05:15:48;;;;;;;28.60;20.40;;;;;;;-0.04;100.00;99289.63;5018098;28;20189;-77
2024/01/15 05:18:13;;;;;;;32.13;20.53;;;;;;;-0.03;100.00;99273.53;5038594;28;20183;-76
2024/01/15 05:20:39;;;;;;;28.47;20.03;;;;;;;0.00;100.00;99272.75;5023653;28;20207;-76
2024/01/15 05:23:04;;;;;;;33.40;21.10;;;;;;;0.04;100.00;99268.56;5022290;28;20191;-76
2024/01/15 05:25:29;;;;;;;31.80;21.47;;;;;;;0.05;100.00;99263.50;5021086;28;20195;-77
2024/01/15 05:27:55;;;;;;;30.13;20.80;;;;;;;0.10;100.00;99272.09;5022062;28;20307;-78
2024/01/15 05:30:20;;;;;;;29.33;20.50;;;;;;;0.12;100.00;99277.19;5022337;28;20223;-75
2024/01/15 05:32:45;;;;;;;27.30;20.10;;;;;;;0.14;100.00;99262.81;5017690;28;20598;-76
2024/01/15 05:35:10;;;;;;;33.57;22.90;;;;;;;0.28;100.00;99271.53;5023628;28;20210;-75
2024/01/15 05:37:36;;;;;;;32.40;22.57;;;;;;;0.23;100.00;99262.94;5023678;28;20270;-76
2024/01/15 05:40:02;;;;;;;29.67;20.77;;;;;;;0.13;100.00;99259.41;5022050;28;20210;-77
2024/01/15 05:42:30;;;;;;;29.00;20.17;;;;;;;0.11;100.00;99247.47;5025876;28;20215;-76
2024/01/15 05:44:55;;;;;;;27.13;20.33;;;;;;;0.14;100.00;99252.63;5029467;28;20818;-76
2024/01/15 05:47:21;;;;;;;27.33;20.47;;;;;;;0.11;100.00;99265.28;5036353;28;20234;-76
2024/01/15 05:49:46;;;;;;;30.07;20.70;;;;;;;0.13;100.00;99277.22;5020945;28;20286;-76
2024/01/15 05:52:11;;;;;;;27.93;20.30;;;;;;;0.14;100.00;99258.59;5029318;28;20277;-75
2024/01/15 05:54:36;;;;;;;28.60;21.53;;;;;;;0.17;100.00;99262.84;5028430;28;20664;-78
2024/01/15 05:57:02;;;;;;;29.80;20.90;;;;;;;0.19;100.00;99266.28;5027137;28;20264;-76
2024/01/15 05:59:31;;;;;;;29.10;20.17;;;;;;;0.20;100.00;99247.66;5026628;28;20586;-76
2024/01/15 06:01:56;;;;;;;29.20;20.80;;;;;;;0.20;100.00;99249.31;5025804;28;20221;-75
2024/01/15 06:04:22;;;;;;;29.50;22.03;;;;;;;0.21;100.00;99240.84;5029389;28;20570;-76
2024/01/15 06:06:47;;;;;;;30.43;21.17;;;;;;;0.20;100.00;99236.59;5026054;28;20638;-76
2024/01/15 06:09:12;;;;;;;29.93;22.23;;;;;;;0.15;100.00;99232.28;5027879;28;20209;-76
2024/01/15 06:11:38;;;;;;;28.90;21.00;;;;;;;0.13;100.00;99231.44;5027838;28;20295;-77
2024/01/15 06:14:03;;;;;;;31.80;21.87;;;;;;;0.10;100.00;99221.19;5027848;28;20195;-77
2024/01/15 06:16:29;;;;;;;32.40;22.50;;;;;;;0.07;100.00;99220.28;5040786;28;20221;-76
2024/01/15 06:18:54;;;;;;;32.13;21.60;;;;;;;0.04;100.00;99221.09;5024001;28;20194;-76
2024/01/15 06:21:20;;;;;;;30.07;21.17;;;;;;;-0.01;100.00;99220.16;5026402;28;20214;-76
2024/01/15 06:23:45;;;;;;;30.90;21.93;;;;;;;-0.01;100.00;99222.72;5026040;28;20195;-76
2024/01/15 06:26:13;;;;;;;29.37;20.60;;;;;;;-0.07;100.00;99228.53;5027409;28;20191;-76
2024/01/15 06:28:38;;;;;;;31.10;21.17;;;;;;;-0.08;100.00;99225.97;5029035;28;20213;-75
2024/01/15 06:31:05;;;;;;;29.50;21.20;;;;;;;-0.06;100.00;99235.31;5025324;28;20678;-75
2024/01/15 06:33:30;;;;;;;28.90;21.07;;;;;;;-0.05;100.00;99231.13;5024514;28;20243;-76
2024/01/15 06:35:56;;;;;;;28.13;20.73;;;;;;;-0.02;100.00;99237.09;5025925;28;20210;-77
2024/01/15 06:38:21;;;;;;;28.13;20.23;;;;;;;0.03;100.00;99229.53;5031957;28;20551;-76
2024/01/15 06:40:48;;;;;;;27.23;20.30;;;;;;;0.03;100.00;99229.53;5026919;28;20218;-75
2024/01/15 06:43:14;;;;;;;26.20;19.83;;;;;;;0.05;100.00;99222.78;5023956;28;20210;-76
2024/01/15 06:45:39;;;;;;;28.80;20.90;;;;;;;0.09;100.00;99226.25;5025924;28;20237;-76
2024/01/15 06:48:05;;;;;;;27.33;18.73;;;;;;;0.11;100.00;99216.94;5017516;28;20290;-75
2024/01/15 06:50:30;;;;;;;25.50;19.83;;;;;;;0.14;100.00;99219.56;5019424;28;20301;-76
2024/01/15 06:52:56;;;;;;;24.33;17.80;;;;;;;0.18;100.00;99212.81;5022533;28;20237;-76
2024/01/15 06:55:21;;;;;;;28.83;20.33;;;;;;;0.21;100.00;99216.28;5022368;28;20885;-76
2024/01/15 06:57:46;;;;;;;28.43;20.57;;;;;;;0.25;100.00;99210.38;5026360;28;20198;-76
2024/01/15 07:00:13;;;;;;;26.03;18.73;;;;;;;0.28;100.00;99222.31;5026086;28;20219;-76
2024/01/15 07:02:38;;;;;;;25.33;18.37;;;;;;;0.30;100.00;99218.97;5024242;28;20250;-77
2024/01/15 07:05:05;;;;;;;25.43;17.60;;;;;;;0.35;100.00;99229.19;5024304;28;20618;-76
2024/01/15 07:07:30;;;;;;;27.37;19.20;;;;;;;0.37;100.00;99229.25;5024843;28;20250;-75
2024/01/15 07:09:56;;;;;;;27.60;19.67;;;;;;;0.38;100.00;99228.41;5025096;28;20629;-76
2024/01/15 07:12:21;;;;;;;26.50;18.87;;;;;;;0.40;100.00;99230.13;5020817;28;20189;-76
2024/01/15 07:14:46;;;;;;;27.57;18.53;;;;;;;0.42;100.00;99242.88;5022100;28;20188;-76
2024/01/15 07:17:12;;;;;;;28.03;19.73;;;;;;;0.43;100.00;99244.59;5027678;28;20210;-75
2024/01/15 07:19:37;;;;;;;28.43;20.33;;;;;;;0.45;100.00;99243.78;5015972;28;20226;-76
2024/01/15 07:22:04;;;;;;;26.30;18.97;;;;;;;0.48;100.00;99250.63;5024597;28;20216;-76
2024/01/15 07:24:29;;;;;;;27.50;19.23;;;;;;;0.48;100.00;99253.16;5022926;28;20195;-76
2024/01/15 07:26:55;;;;;;;27.60;20.27;;;;;;;0.47;100.00;99264.19;5026377;28;20190;-76
2024/01/15 07:29:20;;;;;;;29.13;20.57;;;;;;;0.48;100.00;99258.25;5021453;28;20198;-75
2024/01/15 07:31:52;;;;;;;29.40;21.47;;;;;;;0.49;100.00;99266.75;5024772;28;20212;-75
2024/01/15 07:34:18;;;;;;;31.30;21.80;;;;;;;0.51;100.00;99270.16;5029487;28;20219;-76
2024/01/15 07:36:46;;;;;;;32.33;22.27;;;;;;;0.51;100.00;99270.16;5026730;28;20607;-75
2024/01/15 07:39:12;;;;;;;30.03;21.63;;;;;;;0.51;100.00;99265.94;5024830;28;20197;-75
2024/01/15 07:41:37;;;;;;;31.17;21.57;;;;;;;0.54;100.00;99273.59;5027305;28;20609;-77
2024/01/15 07:44:02;;;;;;;31.43;21.47;;;;;;;0.55;100.00;99277.88;5027749;28;20194;-75
2024/01/15 07:46:28;;;;;;;34.33;23.13;;;;;;;0.57;100.00;99276.22;5025748;28;20202;-77
2024/01/15 07:48:56;;;;;;;27.87;21.63;;;;;;;0.57;100.00;99283.84;5023941;28;20641;-77
2024/01/15 07:51:22;;;;;;;29.20;21.83;;;;;;;0.59;100.00;99279.63;5024317;28;20218;-75
2024/01/15 07:53:47;;;;;;;31.40;20.47;;;;;;;0.62;100.00;99281.38;5017113;28;20186;-78
2024/01/15 07:56:13;;;;;;;28.97;20.10;;;;;;;0.66;100.00;99275.50;5021851;28;20192;-76
2024/01/15 07:58:38;;;;;;;28.60;20.47;;;;;;;0.68;100.00;99268.72;5021412;28;20627;-77
2024/01/15 08:01:04;;;;;;;29.80;21.13;;;;;;;0.73;100.00;99271.34;5024364;28;20360;-76
2024/01/15 08:03:29;;;;;;;32.47;22.07;;;;;;;0.75;100.00;99270.56;5022775;28;20237;-76
2024/01/15 08:05:57;;;;;;;30.10;21.00;;;;;;;0.73;100.00;99264.56;5025472;28;20279;-77
2024/01/15 08:08:23;;;;;;;29.33;21.07;;;;;;;0.73;100.00;99262.03;5025901;28;20625;-76
2024/01/15 08:10:48;;;;;;;31.90;22.10;;;;;;;0.77;100.00;99262.91;5027056;28;20222;-77
2024/01/15 08:13:14;;;;;;;32.50;21.83;;;;;;;0.81;100.00;99261.25;5021631;28;20183;-77
2024/01/15 08:15:40;;;;;;;33.80;23.30;;;;;;;0.82;100.00;99262.97;5021870;28;20282;-76
2024/01/15 08:18:05;;;;;;;31.23;22.37;;;;;;;0.82;100.00;99253.66;5015784;28;20697;-75
2024/01/15 08:20:31;;;;;;;32.93;23.37;;;;;;;0.86;100.00;99246.91;5021609;28;20218;-76
2024/01/15 08:22:56;;;;;;;31.50;22.87;;;;;;;0.83;100.00;99242.59;5013098;28;20199;-76
2024/01/15 08:25:21;;;;;;;32.27;22.87;;;;;;;0.84;100.00;99241.78;5024146;28;20250;-76
2024/01/15 08:27:47;;;;;;;32.23;21.93;;;;;;;0.97;100.00;99239.41;5019679;28;20275;-76
2024/01/15 08:30:12;;;;;;;33.97;22.67;;;;;;;1.09;100.00;99249.75;5020560;28;20584;-76
2024/01/15 08:32:42;;;;;;;31.40;22.67;;;;;;;1.11;100.00;99247.22;5014086;28;20226;-76
2024/01/15 08:35:07;;;;;;;29.80;21.30;;;;;;;0.94;100.00;99235.13;5013600;28;20202;-76
2024/01/15 08:37:33;;;;;;;31.23;21.83;;;;;;;0.83;100.00;99224.78;5014968;28;20196;-77
2024/01/15 08:39:58;;;;;;;30.73;22.23;;;;;;;0.88;100.00;99220.63;5018937;28;20218;-77
2024/01/15 08:42:24;;;;;;;29.67;21.53;;;;;;;0.85;100.00;99219.72;5018119;28;20216;-76
2024/01/15 08:44:50;;;;;;;29.57;21.50;;;;;;;0.86;100.00;99227.38;5017533;28;20205;-75
2024/01/15 08:47:16;;;;;;;31.53;21.03;;;;;;;1.03;100.00;99224.19;5018545;28;20191;-76
2024/01/15 08:49:42;;;;;;;30.37;20.47;;;;;;;1.02;100.00;99212.28;5023513;28;20183;-78
2024/01/15 08:52:08;;;;;;;31.60;22.20;;;;;;;1.00;100.00;99208.84;5024995;28;20205;-77
2024/01/15 08:54:33;;;;;;;30.57;20.00;;;;;;;1.08;100.00;99220.03;5035034;28;20195;-77
2024/01/15 08:56:59;;;;;;;29.63;21.17;;;;;;;1.10;100.00;99220.03;5022388;28;20191;-76
2024/01/15 08:59:25;;;;;;;26.70;19.47;;;;;;;1.20;100.00;99225.25;5016839;28;20199;-75
2024/01/15 09:01:55;;;;;;;28.40;19.57;;;;;;;1.11;100.00;99217.50;5011715;28;20286;-76
2024/01/15 09:04:20;;;;;;;27.33;20.30;;;;;;;1.10;100.00;99222.56;5016511;28;20686;-76
2024/01/15 09:06:48;;;;;;;25.57;18.90;;;;;;;1.09;100.00;99209.00;5012858;28;20188;-76
2024/01/15 09:09:16;;;;;;;30.40;20.50;;;;;;;1.10;100.00;99209.84;5022373;28;20187;-77
2024/01/15 09:11:42;;;;;;;26.70;19.63;;;;;;;1.20;100.00;99212.50;5021309;28;20203;-76
2024/01/15 09:14:08;;;;;;;26.07;19.20;;;;;;;1.13;100.00;99202.22;5021892;28;20198;-76
2024/01/15 09:16:33;;;;;;;25.60;19.40;;;;;;;1.27;100.00;99202.41;5028015;28;20195;-75
2024/01/15 09:18:59;;;;;;;26.00;18.70;;;;;;;1.21;100.00;99198.09;5031941;28;20554;-78
2024/01/15 09:21:25;;;;;;;27.93;19.60;;;;;;;1.26;100.00;99193.03;5023404;28;20214;-74
2024/01/15 09:23:50;;;;;;;28.53;19.53;;;;;;;1.38;100.00;99195.72;5027026;28;20253;-77
2024/01/15 09:26:16;;;;;;;26.83;18.73;;;;;;;1.46;100.00;99183.06;5028254;28;20198;-77
2024/01/15 09:28:41;;;;;;;30.10;20.03;;;;;;;1.56;100.00;99189.94;5039955;28;20190;-76
2024/01/15 09:31:07;;;;;;;26.43;19.30;;;;;;;1.65;100.00;99189.19;5029077;28;20642;-76
2024/01/15 09:33:32;;;;;;;27.90;19.53;;;;;;;1.60;100.00;99188.28;5026155;28;20211;-75
2024/01/15 09:35:57;;;;;;;25.63;18.73;;;;;;;1.58;100.00;99182.31;5030827;28;20274;-76
2024/01/15 09:38:23;;;;;;;25.90;19.37;;;;;;;1.60;100.00;99183.16;5028339;28;20187;-77
2024/01/15 09:40:49;;;;;;;25.60;18.17;;;;;;;1.66;100.00;99183.25;5023209;28;20294;-76
2024/01/15 09:43:15;;;;;;;29.30;20.27;;;;;;;1.72;100.00;99183.31;5020712;28;20187;-76
2024/01/15 09:45:42;;;;;;;25.10;17.67;;;;;;;1.81;100.00;99185.09;5027031;28;20711;-76
2024/01/15 09:48:08;;;;;;;28.03;20.00;;;;;;;1.95;100.00;99183.50;5024781;28;20179;-77
2024/01/15 09:50:33;;;;;;;26.53;19.33;;;;;;;1.91;100.00;99186.88;5021703;28;20261;-76
2024/01/15 09:52:59;;;;;;;28.30;19.07;;;;;;;2.01;100.00;99179.28;5028212;28;20672;-75
2024/01/15 09:55:25;;;;;;;25.87;18.97;;;;;;;2.01;100.00;99175.03;5025105;28;20249;-76
2024/01/15 09:57:50;;;;;;;30.60;19.63;;;;;;;2.08;100.00;99181.88;5025516;28;20234;-76
2024/01/15 10:00:19;;;;;;;27.77;19.87;;;;;;;1.88;100.00;99184.28;5029487;28;20655;-76
2024/01/15 10:02:44;;;;;;;28.17;20.43;;;;;;;1.90;100.00;99179.19;5026661;28;20195;-75
2024/01/15 10:05:10;;;;;;;26.53;18.33;;;;;;;1.86;100.00;99173.22;5025443;28;20222;-76
2024/01/15 10:07:37;;;;;;;27.33;19.70;;;;;;;1.89;100.00;99165.59;5026277;28;20750;-75
2024/01/15 10:10:03;;;;;;;32.70;21.40;;;;;;;1.88;100.00;99155.38;5017730;28;20212;-76
2024/01/15 10:12:29;;;;;;;29.77;20.13;;;;;;;1.78;100.00;99152.75;5022711;28;20187;-76
2024/01/15 10:14:56;;;;;;;26.50;19.60;;;;;;;1.81;100.00;99151.94;5044018;28;20191;-76
2024/01/15 10:17:21;;;;;;;26.53;19.40;;;;;;;1.78;100.00;99150.19;5019292;28;20927;-76
2024/01/15 10:19:47;;;;;;;27.20;18.70;;;;;;;1.86;100.00;99147.69;5018948;28;20192;-75
2024/01/15 10:22:14;;;;;;;24.90;17.90;;;;;;;1.75;100.00;99139.09;5018652;28;20695;-78
2024/01/15 10:24:40;;;;;;;28.50;19.47;;;;;;;1.75;100.00;99144.22;5023303;28;20283;-75
2024/01/15 10:27:09;;;;;;;27.87;19.47;;;;;;;1.77;100.00;99143.38;5025378;28;20193;-75
2024/01/15 10:29:35;;;;;;;28.10;18.10;;;;;;;1.74;100.00;99138.25;5017301;28;20755;-76
2024/01/15 10:32:01;;;;;;;25.90;18.07;;;;;;;1.70;100.00;99136.53;5021606;28;20203;-77
2024/01/15 10:34:26;;;;;;;25.97;17.43;;;;;;;1.64;100.00;99134.78;5025485;28;20194;-77
2024/01/15 10:36:55;;;;;;;26.10;17.57;;;;;;;1.58;100.00;99134.72;5016686;28;20191;-76
2024/01/15 10:39:21;;;;;;;24.40;17.57;;;;;;;1.53;100.00;99144.00;5027006;28;20191;-76
2024/01/15 10:41:47;;;;;;;22.90;17.50;;;;;;;1.63;100.00;99135.63;5023715;28;20241;-76
2024/01/15 10:44:12;;;;;;;24.13;16.80;;;;;;;1.58;100.00;99136.44;5021483;28;20198;-77
2024/01/15 10:46:38;;;;;;;23.90;16.33;;;;;;;1.62;100.00;99139.00;5015929;28;20198;-77
2024/01/15 10:49:04;;;;;;;22.10;16.77;;;;;;;1.65;100.00;99138.19;5021912;28;20293;-78
2024/01/15 10:51:30;;;;;;;25.40;17.30;;;;;;;1.67;100.00;99132.22;5027613;28;20577;-74
2024/01/15 10:53:57;;;;;;;24.07;16.23;;;;;;;1.75;100.00;99136.56;5027758;28;20187;-76
2024/01/15 10:56:23;;;;;;;23.37;16.80;;;;;;;1.79;100.00;99140.84;5019996;28;21008;-77
2024/01/15 10:58:50;;;;;;;24.70;17.03;;;;;;;1.87;100.00;99139.19;5040001;28;20191;-76
2024/01/15 11:01:16;;;;;;;24.23;16.47;;;;;;;1.88;100.00;99142.63;5021133;28;20254;-76
2024/01/15 11:03:43;;;;;;;21.43;15.27;;;;;;;1.88;100.00;99140.91;5011356;28;20687;-76
2024/01/15 11:06:19;;;;;;;24.53;16.53;;;;;;;1.85;100.00;99129.84;5025158;28;20195;-76